createdAt,value
2023-03-23T00:03:46.561Z,228.97
2023-03-23T00:07:47.283Z,224.87
2023-03-23T00:11:48.005Z,219.30
2023-03-23T00:15:48.767Z,211.63
2023-03-23T00:19:49.515Z,206.18
2023-03-23T00:23:50.237Z,203.68
2023-03-23T00:27:50.993Z,200.94
2023-03-23T00:31:51.763Z,213.34
2023-03-23T00:35:52.530Z,210.02
2023-03-23T00:39:53.204Z,218.64
2023-03-23T00:43:53.927Z,211.12
2023-03-23T00:47:54.641Z,221.13
2023-03-23T00:51:55.390Z,216.07
2023-03-23T00:55:56.130Z,209.61
2023-03-23T00:59:56.942Z,215.95
2023-03-23T01:03:58.683Z,219.56
2023-03-23T01:07:58.409Z,225.17
2023-03-23T01:11:59.145Z,208.30
2023-03-23T01:15:59.883Z,220.25
2023-03-23T01:20:00.596Z,215.45
2023-03-23T01:24:01.310Z,219.57
2023-03-23T01:28:02.002Z,216.42
2023-03-23T01:32:02.710Z,208.31
2023-03-23T01:36:03.475Z,208.97
2023-03-23T01:40:04.213Z,214.92
2023-03-23T01:44:04.993Z,226.76
2023-03-23T01:48:05.740Z,211.47
2023-03-23T01:52:06.518Z,197.83
2023-03-23T01:56:07.307Z,194.32
2023-03-23T02:00:08.080Z,188.37
2023-03-23T02:04:08.836Z,208.00
2023-03-23T02:08:09.585Z,203.55
2023-03-23T02:12:10.391Z,199.20
2023-03-23T02:16:11.154Z,165.32
2023-03-23T02:20:11.973Z,157.89
2023-03-23T02:24:12.780Z,143.84
2023-03-23T02:28:13.646Z,178.40
2023-03-23T02:32:14.537Z,206.45
2023-03-23T02:36:15.395Z,192.30
2023-03-23T02:40:16.405Z,186.45
2023-03-23T05:08:50.824Z,211.25
2023-03-23T05:16:52.706Z,165.35
2023-03-23T05:20:53.585Z,160.72
2023-03-23T05:24:54.509Z,151.12
2023-03-23T05:28:55.433Z,160.64
2023-03-23T05:32:57.353Z,184.18
2023-03-23T05:36:57.229Z,184.03
2023-03-23T05:40:58.098Z,150.80
2023-03-23T05:44:58.971Z,96.80
2023-03-23T05:48:59.995Z,121.55
2023-03-23T05:53:00.959Z,177.77
2023-03-23T05:57:02.069Z,234.36
2023-03-23T06:01:03.140Z,213.64
2023-03-23T06:05:04.183Z,168.01
2023-03-23T06:09:06.620Z,153.66
2023-03-23T06:13:06.273Z,78.29
2023-03-23T06:17:07.322Z,75.82
2023-03-23T06:21:08.387Z,104.47
2023-03-23T06:29:09.903Z,101.89
2023-03-23T06:33:10.719Z,77.27
2023-03-23T06:37:11.408Z,68.48
2023-03-23T06:41:12.182Z,30.57
2023-03-23T06:45:13.062Z,24.73
2023-03-23T06:49:13.926Z,39.16
2023-03-23T06:53:14.738Z,109.90
2023-03-23T06:57:15.575Z,105.71
2023-03-23T07:01:16.473Z,102.28
2023-03-23T07:05:17.417Z,50.69
2023-03-23T07:09:18.360Z,26.50
2023-03-23T07:13:19.265Z,39.23
2023-03-23T07:17:20.352Z,45.66
2023-03-23T07:21:20.991Z,84.14
2023-03-23T07:25:21.794Z,69.28
2023-03-23T07:29:22.754Z,117.15
2023-03-23T07:33:23.590Z,149.38
2023-03-23T07:37:24.453Z,49.76
2023-03-23T07:41:25.359Z,31.27
2023-03-23T07:45:27.196Z,24.44
2023-03-23T07:49:27.100Z,31.03
2023-03-23T07:53:27.840Z,32.66
2023-03-23T07:57:28.544Z,24.96
2023-03-23T08:01:29.204Z,30.96
2023-03-23T08:05:29.852Z,35.82
2023-03-23T08:09:30.551Z,36.05
2023-03-23T08:13:31.245Z,45.54
2023-03-23T08:17:31.872Z,49.24
2023-03-23T08:21:33.573Z,47.99
2023-03-23T08:25:33.293Z,55.28
2023-03-23T08:29:34.173Z,52.29
2023-03-23T08:33:34.864Z,41.15
2023-03-23T08:37:35.557Z,25.00
2023-03-23T08:41:36.234Z,34.89
2023-03-23T08:45:36.846Z,32.70
2023-03-23T08:49:37.495Z,50.39
2023-03-23T08:53:38.192Z,35.56
2023-03-23T08:57:38.880Z,57.54
2023-03-23T09:01:39.543Z,49.84
2023-03-23T09:05:40.392Z,67.00
2023-03-23T09:09:41.633Z,80.81
2023-03-23T09:13:42.572Z,80.73
2023-03-23T09:17:42.078Z,75.70
2023-03-23T09:21:43.201Z,73.46
2023-03-23T09:25:43.458Z,47.24
2023-03-23T09:29:43.534Z,51.93
2023-03-23T09:33:47.162Z,120.08
2023-03-23T09:37:44.423Z,154.23
2023-03-23T09:41:44.892Z,114.83
2023-03-23T09:45:45.386Z,141.34
2023-03-23T09:53:46.225Z,136.57
2023-03-23T11:09:54.052Z,126.15
2023-03-23T11:13:54.385Z,119.76
2023-03-23T11:17:54.707Z,108.71
2023-03-23T11:21:55.221Z,92.43
2023-03-23T11:25:55.731Z,100.70
2023-03-23T11:29:58.685Z,100.55
2023-03-23T11:34:05.977Z,107.75
2023-03-23T11:57:58.412Z,70.72
2023-03-23T12:05:58.994Z,65.65
2023-03-23T12:09:59.304Z,76.38
2023-03-23T12:13:59.679Z,71.30
2023-03-23T12:18:00.116Z,66.42
2023-03-23T12:22:00.533Z,89.14
2023-03-23T12:30:01.266Z,57.14
2023-03-23T13:02:04.124Z,38.73
2023-03-23T13:10:05.385Z,17.06
2023-03-23T13:14:04.859Z,28.78
2023-03-23T13:26:05.817Z,49.55
2023-03-23T14:50:11.337Z,74.45
2023-03-23T15:10:10.823Z,52.75
2023-03-23T15:14:10.975Z,89.40
2023-03-23T15:18:11.365Z,129.63
2023-03-23T15:22:12.401Z,134.15
2023-03-23T15:26:11.641Z,134.91
2023-03-23T15:30:11.745Z,125.09
2023-03-23T15:34:11.892Z,150.38
2023-03-23T15:38:12.059Z,198.59
2023-03-23T15:42:12.254Z,224.89
2023-03-23T15:46:12.435Z,160.41
2023-03-23T15:50:12.617Z,135.26
2023-03-23T15:58:13.003Z,200.36
2023-03-23T16:02:13.305Z,177.09
2023-03-23T16:06:13.396Z,119.57
2023-03-23T16:10:14.602Z,114.03
2023-03-23T16:14:13.792Z,120.76
2023-03-23T16:18:14.107Z,125.76
2023-03-23T16:22:15.162Z,127.35
2023-03-23T16:26:14.762Z,108.29
2023-03-23T16:30:15.121Z,93.16
2023-03-23T16:34:15.518Z,84.10
2023-03-23T16:38:16.370Z,107.91
2023-03-23T16:42:16.352Z,107.27
2023-03-23T16:46:16.858Z,158.59
2023-03-23T16:50:17.241Z,209.86
2023-03-23T16:54:17.616Z,238.89
2023-03-23T16:58:18.330Z,224.88
2023-03-23T17:02:18.563Z,289.76
2023-03-23T17:06:18.983Z,240.22
2023-03-23T17:10:19.229Z,205.01
2023-03-23T17:14:19.449Z,209.94
2023-03-23T17:18:19.658Z,211.86
2023-03-23T17:22:19.892Z,186.96
2023-03-23T17:26:20.135Z,243.04
2023-03-23T17:30:20.851Z,243.11
2023-03-23T17:34:20.661Z,232.56
2023-03-23T17:38:21.351Z,237.11
2023-03-23T17:42:21.219Z,261.55
2023-03-23T17:46:21.533Z,248.92
2023-03-23T17:50:21.857Z,231.43
2023-03-23T17:54:22.125Z,258.83
2023-03-23T17:58:22.530Z,230.94
2023-03-23T18:02:22.877Z,217.73
2023-03-23T18:06:23.038Z,250.73
2023-03-23T18:10:23.422Z,234.44
2023-03-23T18:14:23.761Z,225.07
2023-03-23T18:18:24.053Z,222.23
2023-03-23T18:22:24.393Z,210.29
2023-03-23T18:26:24.750Z,227.37
2023-03-23T18:30:25.109Z,243.75
2023-03-23T18:34:25.463Z,246.25
2023-03-23T18:38:26.001Z,243.42
2023-03-23T18:42:26.614Z,262.82
2023-03-23T18:46:27.079Z,223.29
2023-03-23T18:50:27.682Z,250.00
2023-03-23T18:54:28.200Z,250.85
2023-03-23T18:58:28.778Z,213.15
2023-03-23T19:02:29.461Z,226.07
2023-03-23T19:06:29.934Z,215.08
2023-03-23T19:10:30.889Z,238.69
2023-03-23T19:14:31.184Z,243.19
2023-03-23T19:18:31.796Z,242.32
2023-03-23T19:22:32.440Z,247.91
2023-03-23T19:26:36.695Z,234.40
2023-03-23T19:30:33.419Z,233.47
2023-03-23T19:34:33.897Z,240.35
2023-03-23T19:38:34.275Z,242.74
2023-03-23T19:42:34.643Z,254.41
2023-03-23T19:46:35.035Z,250.00
2023-03-23T19:50:35.409Z,222.55
2023-03-23T19:54:35.853Z,220.84
2023-03-23T19:58:36.192Z,223.47
2023-03-23T20:02:37.264Z,227.08
2023-03-23T20:06:37.684Z,222.03
2023-03-23T20:10:37.409Z,213.39
2023-03-23T20:14:37.802Z,224.61
2023-03-23T20:18:38.380Z,217.52
2023-03-23T20:22:38.835Z,227.58
2023-03-23T20:26:39.180Z,184.80
2023-03-23T20:30:39.582Z,184.86
2023-03-23T20:34:40.413Z,185.05
2023-03-23T20:38:40.435Z,211.13
2023-03-23T20:42:40.872Z,206.90
2023-03-23T20:46:41.316Z,200.47
2023-03-23T20:50:41.764Z,215.87
2023-03-23T20:54:42.198Z,220.16
2023-03-23T20:58:42.657Z,202.46
2023-03-23T21:02:43.164Z,214.36
2023-03-23T21:06:43.576Z,216.17
2023-03-23T21:10:45.150Z,201.56
2023-03-23T21:14:44.531Z,187.97
2023-03-23T21:18:45.020Z,211.07
2023-03-23T21:22:45.516Z,201.44
2023-03-23T21:26:46.014Z,204.00
2023-03-23T21:30:46.798Z,221.79
2023-03-23T21:34:47.204Z,215.62
2023-03-23T21:38:47.888Z,200.68
2023-03-23T21:42:48.562Z,206.82
2023-03-23T21:46:49.260Z,200.05
2023-03-23T21:50:49.882Z,194.48
2023-03-23T21:54:50.576Z,202.99
2023-03-23T21:58:51.285Z,212.85
2023-03-23T22:02:51.997Z,213.85
2023-03-23T22:06:52.664Z,212.64
2023-03-23T22:11:01.387Z,201.38
2023-03-23T22:14:54.813Z,200.25
2023-03-23T22:18:54.301Z,214.71
2023-03-23T22:22:54.931Z,218.77
2023-03-23T22:26:55.619Z,216.55
2023-03-23T22:30:56.333Z,204.70
2023-03-23T22:34:57.463Z,210.57
2023-03-23T22:38:57.760Z,222.50
2023-03-23T22:42:58.485Z,218.97
2023-03-23T22:46:59.945Z,214.98
2023-03-23T22:50:59.987Z,212.87
2023-03-23T22:55:00.680Z,225.56
2023-03-23T22:59:01.357Z,213.77
2023-03-23T23:03:02.123Z,206.29
2023-03-23T23:07:12.585Z,197.63
2023-03-23T23:11:03.330Z,205.86
2023-03-23T23:15:03.835Z,206.48
2023-03-23T23:19:04.438Z,207.46
2023-03-23T23:23:05.464Z,209.40
2023-03-23T23:27:05.943Z,204.39
2023-03-23T23:31:06.513Z,197.54
2023-03-23T23:35:07.056Z,211.55
2023-03-23T23:39:07.560Z,209.44
2023-03-23T23:43:08.101Z,207.06
2023-03-23T23:47:08.640Z,203.67
2023-03-23T23:51:09.466Z,194.23
2023-03-23T23:55:09.692Z,206.10
2023-03-23T23:59:10.229Z,204.27
